sensor_id;sensor_type;location;lat;lon;timestamp;temperature;humidity
22623;DHT22;11478;51.094;7.030;2023-01-15T00:00:33;6.90;99.90
22623;DHT22;11478;51.094;7.030;2023-01-15T00:03:07;6.90;99.90
22623;DHT22;11478;51.094;7.030;2023-01-15T00:05:36;6.80;99.90
22623;DHT22;11478;51.094;7.030;2023-01-15T00:08:10;6.80;99.90
22623;DHT22;11478;51.094;7.030;2023-01-15T00:10:36;6.80;99.90
22623;DHT22;11478;51.094;7.030;2023-01-15T00:13:12;6.70;99.90
22623;DHT22;11478;51.094;7.030;2023-01-15T00:15:38;6.70;99.90
22623;DHT22;11478;51.094;7.030;2023-01-15T00:18:05;6.70;99.90
22623;DHT22;11478;51.094;7.030;2023-01-15T00:20:31;6.60;99.90
22623;DHT22;11478;51.094;7.030;2023-01-15T00:26:26;6.50;99.90
22623;DHT22;11478;51.094;7.030;2023-01-15T00:29:11;6.50;99.90
22623;DHT22;11478;51.094;7.030;2023-01-15T00:31:38;6.40;99.90
22623;DHT22;11478;51.094;7.030;2023-01-15T00:34:04;6.40;99.90
22623;DHT22;11478;51.094;7.030;2023-01-15T00:36:36;6.30;99.90
22623;DHT22;11478;51.094;7.030;2023-01-15T00:39:03;6.30;99.90
22623;DHT22;11478;51.094;7.030;2023-01-15T00:41:31;6.20;99.90
22623;DHT22;11478;51.094;7.030;2023-01-15T00:43:57;6.10;99.90
22623;DHT22;11478;51.094;7.030;2023-01-15T00:46:23;6.10;99.90
22623;DHT22;11478;51.094;7.030;2023-01-15T00:48:49;6.00;99.90
22623;DHT22;11478;51.094;7.030;2023-01-15T00:51:16;6.00;99.90
22623;DHT22;11478;51.094;7.030;2023-01-15T00:53:44;5.90;99.90
22623;DHT22;11478;51.094;7.030;2023-01-15T00:56:10;5.90;99.90
22623;DHT22;11478;51.094;7.030;2023-01-15T00:58:36;5.90;99.90
22623;DHT22;11478;51.094;7.030;2023-01-15T01:01:02;5.80;99.90
22623;DHT22;11478;51.094;7.030;2023-01-15T01:03:31;5.80;99.90
22623;DHT22;11478;51.094;7.030;2023-01-15T01:06:01;5.80;99.90
22623;DHT22;11478;51.094;7.030;2023-01-15T01:08:27;5.80;99.90
22623;DHT22;11478;51.094;7.030;2023-01-15T01:11:08;5.80;99.90
22623;DHT22;11478;51.094;7.030;2023-01-15T01:13:36;5.80;99.90
22623;DHT22;11478;51.094;7.030;2023-01-15T01:16:03;5.70;99.90
22623;DHT22;11478;51.094;7.030;2023-01-15T01:18:32;5.70;99.90
22623;DHT22;11478;51.094;7.030;2023-01-15T01:20:58;5.70;99.90
22623;DHT22;11478;51.094;7.030;2023-01-15T01:23:25;5.70;99.90
22623;DHT22;11478;51.094;7.030;2023-01-15T01:25:52;5.70;99.90
22623;DHT22;11478;51.094;7.030;2023-01-15T01:28:28;5.70;99.90
22623;DHT22;11478;51.094;7.030;2023-01-15T01:30:53;5.60;99.90
22623;DHT22;11478;51.094;7.030;2023-01-15T01:33:19;5.60;99.90
22623;DHT22;11478;51.094;7.030;2023-01-15T01:35:49;5.60;99.90
22623;DHT22;11478;51.094;7.030;2023-01-15T01:38:18;5.60;99.90
22623;DHT22;11478;51.094;7.030;2023-01-15T01:40:43;5.60;99.90
22623;DHT22;11478;51.094;7.030;2023-01-15T01:43:25;5.60;99.90
22623;DHT22;11478;51.094;7.030;2023-01-15T01:45:51;5.60;99.90
22623;DHT22;11478;51.094;7.030;2023-01-15T01:48:28;5.60;99.90
22623;DHT22;11478;51.094;7.030;2023-01-15T01:50:56;5.60;99.90
22623;DHT22;11478;51.094;7.030;2023-01-15T01:53:28;5.60;99.90
22623;DHT22;11478;51.094;7.030;2023-01-15T01:55:55;5.60;99.90
22623;DHT22;11478;51.094;7.030;2023-01-15T01:58:25;5.60;99.90
22623;DHT22;11478;51.094;7.030;2023-01-15T02:00:53;5.60;99.90
22623;DHT22;11478;51.094;7.030;2023-01-15T02:03:21;5.60;99.90
22623;DHT22;11478;51.094;7.030;2023-01-15T02:05:55;5.50;99.90
22623;DHT22;11478;51.094;7.030;2023-01-15T02:08:22;5.60;99.90
22623;DHT22;11478;51.094;7.030;2023-01-15T02:11:01;5.50;99.90
22623;DHT22;11478;51.094;7.030;2023-01-15T02:13:36;5.60;99.90
22623;DHT22;11478;51.094;7.030;2023-01-15T02:16:39;5.60;99.90
22623;DHT22;11478;51.094;7.030;2023-01-15T02:28:12;5.50;99.90
22623;DHT22;11478;51.094;7.030;2023-01-15T02:30:44;5.50;99.90
22623;DHT22;11478;51.094;7.030;2023-01-15T02:33:21;5.40;99.90
22623;DHT22;11478;51.094;7.030;2023-01-15T02:35:54;5.40;99.90
22623;DHT22;11478;51.094;7.030;2023-01-15T02:38:27;5.40;99.90
22623;DHT22;11478;51.094;7.030;2023-01-15T02:40:57;5.40;99.90
22623;DHT22;11478;51.094;7.030;2023-01-15T02:43:24;5.40;99.90
22623;DHT22;11478;51.094;7.030;2023-01-15T02:45:56;5.40;99.90
22623;DHT22;11478;51.094;7.030;2023-01-15T02:48:29;5.40;99.90
22623;DHT22;11478;51.094;7.030;2023-01-15T02:51:09;5.40;99.90
22623;DHT22;11478;51.094;7.030;2023-01-15T02:53:43;5.40;99.90
22623;DHT22;11478;51.094;7.030;2023-01-15T02:56:14;5.30;99.90
22623;DHT22;11478;51.094;7.030;2023-01-15T02:58:46;5.30;99.90
22623;DHT22;11478;51.094;7.030;2023-01-15T03:01:17;5.30;99.90
22623;DHT22;11478;51.094;7.030;2023-01-15T03:04:09;5.30;99.90
22623;DHT22;11478;51.094;7.030;2023-01-15T03:09:08;5.30;99.90
22623;DHT22;11478;51.094;7.030;2023-01-15T03:11:38;5.30;99.90
22623;DHT22;11478;51.094;7.030;2023-01-15T03:16:53;5.20;99.90
22623;DHT22;11478;51.094;7.030;2023-01-15T03:19:28;5.20;99.90
22623;DHT22;11478;51.094;7.030;2023-01-15T03:22:12;5.20;99.90
22623;DHT22;11478;51.094;7.030;2023-01-15T03:25:00;5.20;99.90
22623;DHT22;11478;51.094;7.030;2023-01-15T03:27:28;5.20;99.90
22623;DHT22;11478;51.094;7.030;2023-01-15T03:30:04;5.20;99.90
22623;DHT22;11478;51.094;7.030;2023-01-15T03:32:30;5.20;99.90
22623;DHT22;11478;51.094;7.030;2023-01-15T03:38:20;5.20;99.90
22623;DHT22;11478;51.094;7.030;2023-01-15T03:44:01;5.20;99.90
22623;DHT22;11478;51.094;7.030;2023-01-15T03:46:32;5.20;99.90
22623;DHT22;11478;51.094;7.030;2023-01-15T03:52:30;5.20;99.90
22623;DHT22;11478;51.094;7.030;2023-01-15T03:57:55;5.20;99.90
22623;DHT22;11478;51.094;7.030;2023-01-15T04:00:31;5.20;99.90
22623;DHT22;11478;51.094;7.030;2023-01-15T04:03:00;5.10;99.90
22623;DHT22;11478;51.094;7.030;2023-01-15T04:05:27;5.10;99.90
22623;DHT22;11478;51.094;7.030;2023-01-15T04:07:54;5.20;99.90
22623;DHT22;11478;51.094;7.030;2023-01-15T04:10:22;5.20;99.90
22623;DHT22;11478;51.094;7.030;2023-01-15T04:12:47;5.10;99.90
22623;DHT22;11478;51.094;7.030;2023-01-15T04:15:16;5.10;99.90
22623;DHT22;11478;51.094;7.030;2023-01-15T04:17:42;5.10;99.90
22623;DHT22;11478;51.094;7.030;2023-01-15T04:20:08;5.10;99.90
22623;DHT22;11478;51.094;7.030;2023-01-15T04:22:34;5.10;99.90
22623;DHT22;11478;51.094;7.030;2023-01-15T04:25:02;5.10;99.90
22623;DHT22;11478;51.094;7.030;2023-01-15T04:27:28;5.10;99.90
22623;DHT22;11478;51.094;7.030;2023-01-15T04:29:53;5.00;99.90
22623;DHT22;11478;51.094;7.030;2023-01-15T04:32:19;5.00;99.90
22623;DHT22;11478;51.094;7.030;2023-01-15T04:34:46;5.00;99.90
22623;DHT22;11478;51.094;7.030;2023-01-15T04:37:12;5.00;99.90
22623;DHT22;11478;51.094;7.030;2023-01-15T04:39:39;5.00;99.90
22623;DHT22;11478;51.094;7.030;2023-01-15T04:42:04;4.90;99.90
22623;DHT22;11478;51.094;7.030;2023-01-15T04:44:49;4.90;99.90
22623;DHT22;11478;51.094;7.030;2023-01-15T04:47:17;4.90;99.90
22623;DHT22;11478;51.094;7.030;2023-01-15T04:49:42;4.90;99.90
22623;DHT22;11478;51.094;7.030;2023-01-15T04:52:31;4.90;99.90
22623;DHT22;11478;51.094;7.030;2023-01-15T04:54:57;5.00;99.90
22623;DHT22;11478;51.094;7.030;2023-01-15T04:57:33;4.90;99.90
22623;DHT22;11478;51.094;7.030;2023-01-15T04:59:59;4.90;99.90
22623;DHT22;11478;51.094;7.030;2023-01-15T05:02:26;4.90;99.90
22623;DHT22;11478;51.094;7.030;2023-01-15T05:04:52;4.90;99.90
22623;DHT22;11478;51.094;7.030;2023-01-15T05:07:21;4.90;99.90
22623;DHT22;11478;51.094;7.030;2023-01-15T05:09:46;4.90;99.90
22623;DHT22;11478;51.094;7.030;2023-01-15T05:12:25;4.90;99.90
22623;DHT22;11478;51.094;7.030;2023-01-15T05:14:51;4.90;99.90
22623;DHT22;11478;51.094;7.030;2023-01-15T05:17:21;4.90;99.90
22623;DHT22;11478;51.094;7.030;2023-01-15T05:19:46;4.90;99.90
22623;DHT22;11478;51.094;7.030;2023-01-15T05:22:12;4.90;99.90
22623;DHT22;11478;51.094;7.030;2023-01-15T05:24:38;5.00;99.90
22623;DHT22;11478;51.094;7.030;2023-01-15T05:27:04;5.00;99.90
22623;DHT22;11478;51.094;7.030;2023-01-15T05:29:31;5.00;99.90
22623;DHT22;11478;51.094;7.030;2023-01-15T05:31:56;5.00;99.90
22623;DHT22;11478;51.094;7.030;2023-01-15T05:34:22;4.90;99.90
22623;DHT22;11478;51.094;7.030;2023-01-15T05:36:52;4.90;99.90
22623;DHT22;11478;51.094;7.030;2023-01-15T05:39:18;5.00;99.90
22623;DHT22;11478;51.094;7.030;2023-01-15T05:41:48;5.00;99.90
22623;DHT22;11478;51.094;7.030;2023-01-15T05:44:17;5.00;99.90
22623;DHT22;11478;51.094;7.030;2023-01-15T05:46:44;5.00;99.90
22623;DHT22;11478;51.094;7.030;2023-01-15T05:49:13;5.00;99.90
22623;DHT22;11478;51.094;7.030;2023-01-15T05:51:41;5.00;99.90
22623;DHT22;11478;51.094;7.030;2023-01-15T05:54:10;5.00;99.90
22623;DHT22;11478;51.094;7.030;2023-01-15T05:56:37;5.00;99.90
22623;DHT22;11478;51.094;7.030;2023-01-15T05:59:04;5.00;99.90
22623;DHT22;11478;51.094;7.030;2023-01-15T06:01:30;5.00;99.90
22623;DHT22;11478;51.094;7.030;2023-01-15T06:04:05;5.10;99.90
22623;DHT22;11478;51.094;7.030;2023-01-15T06:06:34;5.10;99.90
22623;DHT22;11478;51.094;7.030;2023-01-15T06:09:00;5.20;99.90
22623;DHT22;11478;51.094;7.030;2023-01-15T06:11:26;5.20;99.90
22623;DHT22;11478;51.094;7.030;2023-01-15T06:13:54;5.20;99.90
22623;DHT22;11478;51.094;7.030;2023-01-15T06:16:20;5.30;99.90
22623;DHT22;11478;51.094;7.030;2023-01-15T06:18:46;5.30;99.90
22623;DHT22;11478;51.094;7.030;2023-01-15T06:21:13;5.30;99.90
22623;DHT22;11478;51.094;7.030;2023-01-15T06:23:41;5.30;99.90
22623;DHT22;11478;51.094;7.030;2023-01-15T06:26:13;5.40;99.90
22623;DHT22;11478;51.094;7.030;2023-01-15T06:28:39;5.40;99.90
22623;DHT22;11478;51.094;7.030;2023-01-15T06:31:10;5.40;99.90
22623;DHT22;11478;51.094;7.030;2023-01-15T06:33:41;5.40;99.90
22623;DHT22;11478;51.094;7.030;2023-01-15T06:36:11;5.50;99.90
22623;DHT22;11478;51.094;7.030;2023-01-15T06:38:37;5.50;99.90
22623;DHT22;11478;51.094;7.030;2023-01-15T06:41:05;5.50;99.90
22623;DHT22;11478;51.094;7.030;2023-01-15T06:43:51;5.50;99.90
22623;DHT22;11478;51.094;7.030;2023-01-15T06:46:45;5.50;99.90
22623;DHT22;11478;51.094;7.030;2023-01-15T06:49:30;5.50;99.90
22623;DHT22;11478;51.094;7.030;2023-01-15T06:51:56;5.50;99.90
22623;DHT22;11478;51.094;7.030;2023-01-15T06:54:22;5.50;99.90
22623;DHT22;11478;51.094;7.030;2023-01-15T06:56:53;5.50;99.90
22623;DHT22;11478;51.094;7.030;2023-01-15T06:59:19;5.40;99.90
22623;DHT22;11478;51.094;7.030;2023-01-15T07:01:45;5.40;99.90
22623;DHT22;11478;51.094;7.030;2023-01-15T07:07:33;5.40;99.90
22623;DHT22;11478;51.094;7.030;2023-01-15T07:10:09;5.40;99.90
22623;DHT22;11478;51.094;7.030;2023-01-15T07:12:34;5.40;99.90
22623;DHT22;11478;51.094;7.030;2023-01-15T07:15:07;5.40;99.90
22623;DHT22;11478;51.094;7.030;2023-01-15T07:17:33;5.40;99.90
22623;DHT22;11478;51.094;7.030;2023-01-15T07:20:00;5.40;99.90
22623;DHT22;11478;51.094;7.030;2023-01-15T07:22:26;5.40;99.90
22623;DHT22;11478;51.094;7.030;2023-01-15T07:24:52;5.40;99.90
22623;DHT22;11478;51.094;7.030;2023-01-15T07:27:18;5.40;99.90
22623;DHT22;11478;51.094;7.030;2023-01-15T07:29:53;5.40;99.90
22623;DHT22;11478;51.094;7.030;2023-01-15T07:32:19;5.40;99.90
22623;DHT22;11478;51.094;7.030;2023-01-15T07:34:52;5.40;99.90
22623;DHT22;11478;51.094;7.030;2023-01-15T07:37:18;5.30;99.90
22623;DHT22;11478;51.094;7.030;2023-01-15T07:39:47;5.30;99.90
22623;DHT22;11478;51.094;7.030;2023-01-15T07:42:12;5.30;99.90
22623;DHT22;11478;51.094;7.030;2023-01-15T07:44:58;5.30;99.90
22623;DHT22;11478;51.094;7.030;2023-01-15T07:47:42;5.30;99.90
22623;DHT22;11478;51.094;7.030;2023-01-15T07:50:30;5.30;99.90
22623;DHT22;11478;51.094;7.030;2023-01-15T07:52:55;5.30;99.90
22623;DHT22;11478;51.094;7.030;2023-01-15T07:55:21;5.30;99.90
22623;DHT22;11478;51.094;7.030;2023-01-15T07:57:48;5.20;99.90
22623;DHT22;11478;51.094;7.030;2023-01-15T08:00:23;5.20;99.90
22623;DHT22;11478;51.094;7.030;2023-01-15T08:02:49;5.20;99.90
22623;DHT22;11478;51.094;7.030;2023-01-15T08:05:17;5.20;99.90
22623;DHT22;11478;51.094;7.030;2023-01-15T08:07:43;5.30;99.90
22623;DHT22;11478;51.094;7.030;2023-01-15T08:10:21;5.30;99.90
22623;DHT22;11478;51.094;7.030;2023-01-15T08:12:48;5.30;99.90
22623;DHT22;11478;51.094;7.030;2023-01-15T08:15:40;5.30;99.90
22623;DHT22;11478;51.094;7.030;2023-01-15T08:18:08;5.40;99.90
22623;DHT22;11478;51.094;7.030;2023-01-15T08:20:35;5.40;99.90
22623;DHT22;11478;51.094;7.030;2023-01-15T08:23:01;5.40;99.90
22623;DHT22;11478;51.094;7.030;2023-01-15T08:25:27;5.40;99.90
22623;DHT22;11478;51.094;7.030;2023-01-15T08:27:53;5.50;99.90
22623;DHT22;11478;51.094;7.030;2023-01-15T08:30:22;5.50;99.90
22623;DHT22;11478;51.094;7.030;2023-01-15T08:32:48;5.50;99.90
22623;DHT22;11478;51.094;7.030;2023-01-15T08:35:15;5.50;99.90
22623;DHT22;11478;51.094;7.030;2023-01-15T08:37:41;5.50;99.90
22623;DHT22;11478;51.094;7.030;2023-01-15T08:40:08;5.50;99.90
22623;DHT22;11478;51.094;7.030;2023-01-15T08:42:34;5.40;99.90
22623;DHT22;11478;51.094;7.030;2023-01-15T08:45:02;5.40;99.90
22623;DHT22;11478;51.094;7.030;2023-01-15T08:47:28;5.40;99.90
22623;DHT22;11478;51.094;7.030;2023-01-15T08:49:56;5.30;99.90
22623;DHT22;11478;51.094;7.030;2023-01-15T08:52:22;5.30;99.90
22623;DHT22;11478;51.094;7.030;2023-01-15T08:54:48;5.30;99.90
22623;DHT22;11478;51.094;7.030;2023-01-15T08:57:14;5.30;99.90
22623;DHT22;11478;51.094;7.030;2023-01-15T08:59:40;5.30;99.90
22623;DHT22;11478;51.094;7.030;2023-01-15T09:02:11;5.20;99.90
22623;DHT22;11478;51.094;7.030;2023-01-15T09:04:38;5.20;99.90
22623;DHT22;11478;51.094;7.030;2023-01-15T09:07:04;5.20;99.90
22623;DHT22;11478;51.094;7.030;2023-01-15T09:09:30;5.10;99.90
22623;DHT22;11478;51.094;7.030;2023-01-15T09:18:46;5.10;99.90
22623;DHT22;11478;51.094;7.030;2023-01-15T09:21:12;5.10;99.90
22623;DHT22;11478;51.094;7.030;2023-01-15T09:23:39;5.10;99.90
22623;DHT22;11478;51.094;7.030;2023-01-15T09:26:06;5.10;99.90
22623;DHT22;11478;51.094;7.030;2023-01-15T09:28:39;5.00;99.90
22623;DHT22;11478;51.094;7.030;2023-01-15T09:31:05;5.00;99.90
22623;DHT22;11478;51.094;7.030;2023-01-15T09:33:31;4.90;99.90
22623;DHT22;11478;51.094;7.030;2023-01-15T09:35:57;4.90;99.90
22623;DHT22;11478;51.094;7.030;2023-01-15T09:38:23;4.80;99.90
22623;DHT22;11478;51.094;7.030;2023-01-15T09:41:10;4.80;
22623;DHT22;11478;51.094;7.030;2023-01-15T09:53:08;4.70;99.90
22623;DHT22;11478;51.094;7.030;2023-01-15T09:55:47;4.80;99.90
22623;DHT22;11478;51.094;7.030;2023-01-15T09:58:18;5.00;99.90
22623;DHT22;11478;51.094;7.030;2023-01-15T10:00:49;5.10;99.90
22623;DHT22;11478;51.094;7.030;2023-01-15T10:08:46;5.20;99.90
22623;DHT22;11478;51.094;7.030;2023-01-15T10:11:35;5.20;99.90
22623;DHT22;11478;51.094;7.030;2023-01-15T10:20:01;5.40;99.90
22623;DHT22;11478;51.094;7.030;2023-01-15T10:22:47;5.50;99.90
22623;DHT22;11478;51.094;7.030;2023-01-15T10:25:28;5.60;99.90
22623;DHT22;11478;51.094;7.030;2023-01-15T10:28:03;5.80;99.90
22623;DHT22;11478;51.094;7.030;2023-01-15T10:30:39;6.00;99.90
22623;DHT22;11478;51.094;7.030;2023-01-15T10:35:59;6.30;99.90
22623;DHT22;11478;51.094;7.030;2023-01-15T10:44:05;6.50;99.90
22623;DHT22;11478;51.094;7.030;2023-01-15T10:46:36;6.50;99.90
22623;DHT22;11478;51.094;7.030;2023-01-15T10:49:16;6.60;99.90
22623;DHT22;11478;51.094;7.030;2023-01-15T10:51:50;6.60;99.90
22623;DHT22;11478;51.094;7.030;2023-01-15T10:54:34;6.60;99.90
22623;DHT22;11478;51.094;7.030;2023-01-15T10:59:58;6.60;99.90
22623;DHT22;11478;51.094;7.030;2023-01-15T11:05:00;6.60;99.90
22623;DHT22;11478;51.094;7.030;2023-01-15T11:07:40;6.60;99.90
22623;DHT22;11478;51.094;7.030;2023-01-15T11:10:09;6.70;99.90
22623;DHT22;11478;51.094;7.030;2023-01-15T11:12:53;6.70;99.90
22623;DHT22;11478;51.094;7.030;2023-01-15T11:15:39;6.70;99.90
22623;DHT22;11478;51.094;7.030;2023-01-15T11:18:28;6.70;99.90
22623;DHT22;11478;51.094;7.030;2023-01-15T11:21:16;6.60;99.90
22623;DHT22;11478;51.094;7.030;2023-01-15T11:23:43;6.60;99.90
22623;DHT22;11478;51.094;7.030;2023-01-15T11:26:09;6.60;99.90
22623;DHT22;11478;51.094;7.030;2023-01-15T11:28:43;6.70;99.90
22623;DHT22;11478;51.094;7.030;2023-01-15T11:31:11;6.70;99.90
22623;DHT22;11478;51.094;7.030;2023-01-15T11:34:03;6.70;99.90
22623;DHT22;11478;51.094;7.030;2023-01-15T11:36:30;6.70;99.90
22623;DHT22;11478;51.094;7.030;2023-01-15T11:38:58;6.70;99.90
22623;DHT22;11478;51.094;7.030;2023-01-15T11:41:34;6.70;99.90
22623;DHT22;11478;51.094;7.030;2023-01-15T11:44:26;6.60;99.90
22623;DHT22;11478;51.094;7.030;2023-01-15T11:47:12;6.70;99.90
22623;DHT22;11478;51.094;7.030;2023-01-15T11:50:19;6.60;99.90
22623;DHT22;11478;51.094;7.030;2023-01-15T11:53:03;6.60;99.90
22623;DHT22;11478;51.094;7.030;2023-01-15T11:55:32;6.60;99.90
22623;DHT22;11478;51.094;7.030;2023-01-15T11:58:20;6.50;99.90
22623;DHT22;11478;51.094;7.030;2023-01-15T12:00:50;6.50;99.90
22623;DHT22;11478;51.094;7.030;2023-01-15T12:03:20;6.50;99.90
22623;DHT22;11478;51.094;7.030;2023-01-15T12:06:04;6.60;99.90
22623;DHT22;11478;51.094;7.030;2023-01-15T12:21:09;6.90;99.90
22623;DHT22;11478;51.094;7.030;2023-01-15T12:29:14;7.00;99.90
22623;DHT22;11478;51.094;7.030;2023-01-15T12:31:51;7.10;99.90
22623;DHT22;11478;51.094;7.030;2023-01-15T12:34:20;7.10;99.90
22623;DHT22;11478;51.094;7.030;2023-01-15T12:36:58;7.10;99.90
22623;DHT22;11478;51.094;7.030;2023-01-15T12:39:32;7.00;99.90
22623;DHT22;11478;51.094;7.030;2023-01-15T12:42:02;6.90;99.90
22623;DHT22;11478;51.094;7.030;2023-01-15T12:44:52;6.90;99.90
22623;DHT22;11478;51.094;7.030;2023-01-15T12:50:51;6.90;99.90
22623;DHT22;11478;51.094;7.030;2023-01-15T12:58:46;7.00;99.90
22623;DHT22;11478;51.094;7.030;2023-01-15T13:05:02;7.10;99.90
22623;DHT22;11478;51.094;7.030;2023-01-15T13:13:24;7.20;99.90
22623;DHT22;11478;51.094;7.030;2023-01-15T13:16:21;7.10;99.90
22623;DHT22;11478;51.094;7.030;2023-01-15T13:21:34;7.00;99.90
22623;DHT22;11478;51.094;7.030;2023-01-15T13:26:54;7.20;99.90
22623;DHT22;11478;51.094;7.030;2023-01-15T13:32:06;7.30;99.90
22623;DHT22;11478;51.094;7.030;2023-01-15T13:37:35;7.40;99.90
22623;DHT22;11478;51.094;7.030;2023-01-15T13:40:34;7.30;99.90
22623;DHT22;11478;51.094;7.030;2023-01-15T13:43:00;7.30;99.90
22623;DHT22;11478;51.094;7.030;2023-01-15T13:45:37;7.40;99.90
22623;DHT22;11478;51.094;7.030;2023-01-15T13:50:35;7.40;99.90
22623;DHT22;11478;51.094;7.030;2023-01-15T13:53:25;7.30;99.90
22623;DHT22;11478;51.094;7.030;2023-01-15T13:55:59;7.30;99.90
22623;DHT22;11478;51.094;7.030;2023-01-15T13:58:32;7.20;99.90
22623;DHT22;11478;51.094;7.030;2023-01-15T14:04:04;7.10;99.90
22623;DHT22;11478;51.094;7.030;2023-01-15T14:09:09;7.10;99.90
22623;DHT22;11478;51.094;7.030;2023-01-15T14:11:44;7.10;99.90
22623;DHT22;11478;51.094;7.030;2023-01-15T14:25:29;7.00;99.90
22623;DHT22;11478;51.094;7.030;2023-01-15T14:28:18;7.00;99.90
22623;DHT22;11478;51.094;7.030;2023-01-15T14:39:58;6.90;99.90
22623;DHT22;11478;51.094;7.030;2023-01-15T14:42:31;7.00;99.90
22623;DHT22;11478;51.094;7.030;2023-01-15T14:47:59;6.90;99.90
22623;DHT22;11478;51.094;7.030;2023-01-15T14:50:36;6.90;99.90
22623;DHT22;11478;51.094;7.030;2023-01-15T14:53:51;6.90;99.90
22623;DHT22;11478;51.094;7.030;2023-01-15T14:56:31;6.90;99.90
22623;DHT22;11478;51.094;7.030;2023-01-15T15:02:01;6.90;99.90
22623;DHT22;11478;51.094;7.030;2023-01-15T15:07:22;6.90;99.90
22623;DHT22;11478;51.094;7.030;2023-01-15T15:10:09;6.90;99.90
22623;DHT22;11478;51.094;7.030;2023-01-15T15:21:21;6.90;99.90
22623;DHT22;11478;51.094;7.030;2023-01-15T15:27:18;6.90;99.90
22623;DHT22;11478;51.094;7.030;2023-01-15T15:29:44;6.90;99.90
22623;DHT22;11478;51.094;7.030;2023-01-15T15:32:22;6.90;99.90
22623;DHT22;11478;51.094;7.030;2023-01-15T15:34:51;6.80;99.90
22623;DHT22;11478;51.094;7.030;2023-01-15T15:37:20;6.80;99.90
22623;DHT22;11478;51.094;7.030;2023-01-15T15:42:41;6.70;99.90
22623;DHT22;11478;51.094;7.030;2023-01-15T15:45:29;6.70;99.90
22623;DHT22;11478;51.094;7.030;2023-01-15T15:48:19;6.70;99.90
22623;DHT22;11478;51.094;7.030;2023-01-15T15:51:21;6.70;99.90
22623;DHT22;11478;51.094;7.030;2023-01-15T15:54:17;6.60;99.90
22623;DHT22;11478;51.094;7.030;2023-01-15T15:57:14;6.70;99.90
22623;DHT22;11478;51.094;7.030;2023-01-15T15:59:50;6.70;99.90
22623;DHT22;11478;51.094;7.030;2023-01-15T16:02:36;6.70;99.90
22623;DHT22;11478;51.094;7.030;2023-01-15T16:05:28;6.60;99.90
22623;DHT22;11478;51.094;7.030;2023-01-15T16:10:39;6.60;99.90
22623;DHT22;11478;51.094;7.030;2023-01-15T16:13:10;6.50;99.90
22623;DHT22;11478;51.094;7.030;2023-01-15T16:15:39;6.50;99.90
22623;DHT22;11478;51.094;7.030;2023-01-15T16:18:21;6.50;99.90
22623;DHT22;11478;51.094;7.030;2023-01-15T16:20:48;6.40;99.90
22623;DHT22;11478;51.094;7.030;2023-01-15T16:23:26;6.40;99.90
22623;DHT22;11478;51.094;7.030;2023-01-15T16:26:02;6.40;99.90
22623;DHT22;11478;51.094;7.030;2023-01-15T16:28:43;6.40;99.90
22623;DHT22;11478;51.094;7.030;2023-01-15T16:31:14;6.40;99.90
22623;DHT22;11478;51.094;7.030;2023-01-15T16:33:42;6.40;99.90
22623;DHT22;11478;51.094;7.030;2023-01-15T16:36:12;6.40;99.90
22623;DHT22;11478;51.094;7.030;2023-01-15T16:38:41;6.40;99.90
22623;DHT22;11478;51.094;7.030;2023-01-15T16:41:28;6.40;99.90
22623;DHT22;11478;51.094;7.030;2023-01-15T16:44:02;6.40;99.90
22623;DHT22;11478;51.094;7.030;2023-01-15T16:46:34;6.40;99.90
22623;DHT22;11478;51.094;7.030;2023-01-15T16:51:50;6.40;99.90
22623;DHT22;11478;51.094;7.030;2023-01-15T16:57:02;6.40;99.90
22623;DHT22;11478;51.094;7.030;2023-01-15T17:02:17;6.50;99.90
22623;DHT22;11478;51.094;7.030;2023-01-15T17:04:46;6.50;99.90
22623;DHT22;11478;51.094;7.030;2023-01-15T17:12:33;6.40;99.90
22623;DHT22;11478;51.094;7.030;2023-01-15T17:17:43;6.40;99.90
22623;DHT22;11478;51.094;7.030;2023-01-15T17:20:11;6.30;99.90
22623;DHT22;11478;51.094;7.030;2023-01-15T17:22:41;6.30;99.90
22623;DHT22;11478;51.094;7.030;2023-01-15T17:27:47;6.40;99.90
22623;DHT22;11478;51.094;7.030;2023-01-15T17:30:13;6.40;99.90
22623;DHT22;11478;51.094;7.030;2023-01-15T17:32:40;6.40;99.90
22623;DHT22;11478;51.094;7.030;2023-01-15T17:35:25;6.40;99.90
22623;DHT22;11478;51.094;7.030;2023-01-15T17:37:51;6.50;99.90
22623;DHT22;11478;51.094;7.030;2023-01-15T17:40:22;6.50;99.90
22623;DHT22;11478;51.094;7.030;2023-01-15T17:42:48;6.50;99.90
22623;DHT22;11478;51.094;7.030;2023-01-15T17:45:31;6.30;99.90
22623;DHT22;11478;51.094;7.030;2023-01-15T17:47:58;6.10;99.90
22623;DHT22;11478;51.094;7.030;2023-01-15T17:50:24;5.80;99.90
22623;DHT22;11478;51.094;7.030;2023-01-15T17:52:50;5.70;99.90
22623;DHT22;11478;51.094;7.030;2023-01-15T17:55:22;5.50;99.90
22623;DHT22;11478;51.094;7.030;2023-01-15T17:58:12;5.40;99.90
22623;DHT22;11478;51.094;7.030;2023-01-15T18:00:56;5.20;99.90
22623;DHT22;11478;51.094;7.030;2023-01-15T18:03:46;5.20;99.90
22623;DHT22;11478;51.094;7.030;2023-01-15T18:06:31;5.10;99.90
22623;DHT22;11478;51.094;7.030;2023-01-15T18:08:59;5.00;99.90
22623;DHT22;11478;51.094;7.030;2023-01-15T18:11:27;5.00;99.90
22623;DHT22;11478;51.094;7.030;2023-01-15T18:13:54;5.00;99.90
22623;DHT22;11478;51.094;7.030;2023-01-15T18:16:21;4.90;99.90
22623;DHT22;11478;51.094;7.030;2023-01-15T18:18:47;5.00;99.90
22623;DHT22;11478;51.094;7.030;2023-01-15T18:21:17;5.00;99.90
22623;DHT22;11478;51.094;7.030;2023-01-15T18:23:43;5.00;99.90
22623;DHT22;11478;51.094;7.030;2023-01-15T18:26:28;5.00;99.90
22623;DHT22;11478;51.094;7.030;2023-01-15T18:28:54;5.00;99.90
22623;DHT22;11478;51.094;7.030;2023-01-15T18:31:20;4.90;99.90
22623;DHT22;11478;51.094;7.030;2023-01-15T18:33:45;4.90;99.90
22623;DHT22;11478;51.094;7.030;2023-01-15T18:36:17;4.90;99.90
22623;DHT22;11478;51.094;7.030;2023-01-15T18:38:43;5.00;99.90
22623;DHT22;11478;51.094;7.030;2023-01-15T18:41:14;5.00;99.90
22623;DHT22;11478;51.094;7.030;2023-01-15T18:44:15;5.00;99.90
22623;DHT22;11478;51.094;7.030;2023-01-15T18:47:01;5.00;99.90
22623;DHT22;11478;51.094;7.030;2023-01-15T18:49:32;5.00;99.90
22623;DHT22;11478;51.094;7.030;2023-01-15T18:51:57;5.00;99.90
22623;DHT22;11478;51.094;7.030;2023-01-15T18:54:43;5.00;99.90
22623;DHT22;11478;51.094;7.030;2023-01-15T18:57:09;5.00;99.90
22623;DHT22;11478;51.094;7.030;2023-01-15T18:59:38;5.00;99.90
22623;DHT22;11478;51.094;7.030;2023-01-15T19:02:04;5.00;99.90
22623;DHT22;11478;51.094;7.030;2023-01-15T19:04:30;5.00;99.90
22623;DHT22;11478;51.094;7.030;2023-01-15T19:06:58;5.00;99.90
22623;DHT22;11478;51.094;7.030;2023-01-15T19:09:24;5.00;99.90
22623;DHT22;11478;51.094;7.030;2023-01-15T19:11:51;5.00;99.90
22623;DHT22;11478;51.094;7.030;2023-01-15T19:14:18;4.90;99.90
22623;DHT22;11478;51.094;7.030;2023-01-15T19:17:03;4.90;99.90
22623;DHT22;11478;51.094;7.030;2023-01-15T19:19:47;4.90;99.90
22623;DHT22;11478;51.094;7.030;2023-01-15T19:22:14;4.90;99.90
22623;DHT22;11478;51.094;7.030;2023-01-15T19:24:59;4.90;99.90
22623;DHT22;11478;51.094;7.030;2023-01-15T19:27:25;4.90;99.90
22623;DHT22;11478;51.094;7.030;2023-01-15T19:29:50;4.80;99.90
22623;DHT22;11478;51.094;7.030;2023-01-15T19:32:20;4.90;99.90
22623;DHT22;11478;51.094;7.030;2023-01-15T19:34:45;4.80;99.90